Time;durP1;ratioP1;P1;durP2;ratioP2;P2;SDS_P1;SDS_P2;PMS_P1;PMS_P2;Temp;Humidity;BMP_temperature;BMP_pressure;BME280_temperature;BME280_humidity;BME280_pressure;Samples;Min_cycle;Max_cycle;Signal;HPM_P1;HPM_P2
2022/09/06 00:01:40;;;;;;;0.00;0.00;;;18.60;98.50;;;;;;5051887;28;20213;-65
2022/09/06 00:04:05;;;;;;;0.00;0.00;;;18.60;98.60;;;;;;5051187;28;20177;-65
2022/09/06 00:06:31;;;;;;;0.00;0.00;;;18.60;98.80;;;;;;5050814;28;20232;-66
2022/09/06 00:08:56;;;;;;;0.00;0.00;;;18.60;99.00;;;;;;5051052;28;20710;-65
2022/09/06 00:11:22;;;;;;;0.00;0.00;;;18.60;99.10;;;;;;5051140;28;20185;-66
2022/09/06 00:13:47;;;;;;;0.00;0.00;;;18.50;99.20;;;;;;5050947;28;20265;-66
2022/09/06 00:16:22;;;;;;;0.00;0.00;;;18.50;99.30;;;;;;5050610;28;20633;-66
2022/09/06 00:18:48;;;;;;;0.00;0.00;;;18.50;99.60;;;;;;5042593;28;20230;-65
2022/09/06 00:21:16;;;;;;;0.00;0.00;;;18.50;99.80;;;;;;5050794;28;20288;-65
2022/09/06 00:23:42;;;;;;;0.00;0.00;;;18.50;99.90;;;;;;5049804;28;20186;-66
2022/09/06 00:26:08;;;;;;;0.00;0.00;;;18.40;99.90;;;;;;5050286;28;20217;-66
2022/09/06 00:28:33;;;;;;;0.10;0.10;;;18.40;99.90;;;;;;5050454;28;20260;-66
2022/09/06 00:31:07;;;;;;;0.00;0.00;;;18.40;99.90;;;;;;5051205;28;20191;-66
2022/09/06 00:33:33;;;;;;;0.00;0.00;;;18.40;99.90;;;;;;5050081;28;20226;-66
2022/09/06 00:35:59;;;;;;;0.00;0.00;;;18.40;99.90;;;;;;5050426;28;20268;-65
2022/09/06 00:38:25;;;;;;;0.00;0.00;;;18.50;99.90;;;;;;5051104;28;20173;-66
2022/09/06 00:40:50;;;;;;;0.00;0.00;;;18.40;99.90;;;;;;5050360;28;20538;-66
2022/09/06 00:43:16;;;;;;;0.00;0.00;;;18.40;99.90;;;;;;5050923;28;20173;-65
2022/09/06 00:45:41;;;;;;;0.00;0.00;;;18.40;99.90;;;;;;5048698;28;20687;-65
2022/09/06 00:48:07;;;;;;;0.00;0.00;;;18.40;99.90;;;;;;5050647;28;20185;-65
2022/09/06 00:50:32;;;;;;;0.00;0.00;;;18.30;99.90;;;;;;5050881;28;20196;-66
2022/09/06 00:52:58;;;;;;;0.00;0.00;;;18.30;99.90;;;;;;5050551;28;20181;-65
2022/09/06 00:55:25;;;;;;;0.00;0.00;;;18.30;99.90;;;;;;5050744;28;20174;-66
2022/09/06 00:57:51;;;;;;;0.10;0.10;;;18.30;99.90;;;;;;5050289;28;20220;-66
2022/09/06 01:00:19;;;;;;;0.00;0.00;;;18.30;99.90;;;;;;5050215;28;20205;-66
2022/09/06 01:02:45;;;;;;;0.00;0.00;;;18.20;99.90;;;;;;5048616;28;20696;-66
2022/09/06 01:05:12;;;;;;;0.00;0.00;;;18.20;99.90;;;;;;5050400;28;20295;-66
2022/09/06 01:08:13;;;;;;;0.00;0.00;;;18.20;99.90;;;;;;5050477;28;20196;-66
2022/09/06 01:11:11;;;;;;;0.00;0.00;;;18.20;99.90;;;;;;5046882;28;20185;-66
2022/09/06 01:13:58;;;;;;;0.00;0.00;;;18.20;99.90;;;;;;5028680;28;20601;-66
2022/09/06 01:16:47;;;;;;;0.00;0.00;;;18.20;99.90;;;;;;5033726;28;20185;-66
2022/09/06 01:19:27;;;;;;;0.00;0.00;;;18.20;99.90;;;;;;5048395;28;20640;-65
2022/09/06 01:22:04;;;;;;;0.00;0.00;;;18.20;99.90;;;;;;5048103;28;20174;-66
2022/09/06 01:24:51;;;;;;;0.00;0.00;;;18.20;99.90;;;;;;5049822;28;20192;-66
2022/09/06 01:27:38;;;;;;;0.00;0.00;;;18.20;99.90;;;;;;5050074;28;20181;-66
2022/09/06 01:30:08;;;;;;;0.00;0.00;;;18.20;99.90;;;;;;5050691;28;20713;-66
2022/09/06 01:32:56;;;;;;;0.00;0.00;;;18.20;99.90;;;;;;5050458;28;21020;-66
2022/09/06 01:35:39;;;;;;;0.00;0.00;;;18.30;99.90;;;;;;5039254;28;20265;-66
2022/09/06 01:38:06;;;;;;;0.00;0.00;;;18.30;99.90;;;;;;5050644;28;20189;-66
2022/09/06 01:40:35;;;;;;;0.00;0.00;;;18.30;99.90;;;;;;5048501;28;20247;-66
2022/09/06 01:43:02;;;;;;;0.00;0.00;;;18.30;99.90;;;;;;5050620;28;20205;-66
2022/09/06 01:45:56;;;;;;;0.00;0.00;;;18.30;99.90;;;;;;5049975;28;20236;-66
2022/09/06 01:48:50;;;;;;;0.00;0.00;;;18.40;99.90;;;;;;5047184;28;20689;-66
2022/09/06 01:51:51;;;;;;;0.00;0.00;;;18.40;99.90;;;;;;5050330;28;20190;-66
2022/09/06 01:54:40;;;;;;;0.00;0.00;;;18.40;99.90;;;;;;5050197;28;20182;-66
2022/09/06 01:57:32;;;;;;;0.00;0.00;;;18.50;99.90;;;;;;5052508;28;20191;-66
2022/09/06 02:00:10;;;;;;;0.00;0.00;;;18.50;99.90;;;;;;5053566;28;20197;-65
2022/09/06 02:02:57;;;;;;;0.00;0.00;;;18.50;99.90;;;;;;5038212;28;20684;-66
2022/09/06 02:05:32;;;;;;;0.00;0.00;;;18.60;99.90;;;;;;5050897;28;20220;-66
2022/09/06 02:08:05;;;;;;;0.10;0.10;;;18.60;99.90;;;;;;5053285;28;20231;-67
2022/09/06 02:10:39;;;;;;;0.00;0.00;;;18.60;99.90;;;;;;5053910;28;20224;-65
2022/09/06 02:13:08;;;;;;;0.00;0.00;;;18.70;99.90;;;;;;5053479;28;20701;-66
2022/09/06 02:15:38;;;;;;;0.00;0.00;;;18.70;99.90;;;;;;5051715;28;20281;-66
2022/09/06 02:18:18;;;;;;;0.00;0.00;;;18.70;99.90;;;;;;5053504;28;20185;-66
2022/09/06 02:20:51;;;;;;;0.05;0.05;;;18.80;99.90;;;;;;5053554;28;20173;-65
2022/09/06 02:23:19;;;;;;;0.05;0.05;;;18.70;99.90;;;;;;5051985;28;20251;-65
2022/09/06 02:25:53;;;;;;;0.10;0.10;;;18.70;99.90;;;;;;5052904;28;20708;-66
2022/09/06 02:28:19;;;;;;;0.00;0.00;;;18.70;99.90;;;;;;5052739;28;20254;-66
2022/09/06 02:30:54;;;;;;;0.00;0.00;;;18.60;99.90;;;;;;5052833;28;20177;-66
2022/09/06 02:33:21;;;;;;;0.00;0.00;;;18.60;99.90;;;;;;5052732;28;20705;-66
2022/09/06 02:35:50;;;;;;;0.00;0.00;;;18.60;99.90;;;;;;5053213;28;20256;-65
2022/09/06 02:38:17;;;;;;;0.00;0.00;;;18.60;99.90;;;;;;5052982;28;20291;-65
2022/09/06 02:40:44;;;;;;;0.00;0.00;;;18.70;99.90;;;;;;5051572;28;20546;-65
2022/09/06 02:43:09;;;;;;;0.00;0.00;;;18.70;99.90;;;;;;5052849;28;20209;-65
2022/09/06 02:45:35;;;;;;;0.00;0.00;;;18.70;99.90;;;;;;5053112;28;20237;-66
2022/09/06 02:48:01;;;;;;;0.00;0.00;;;18.70;99.90;;;;;;5052846;28;20180;-66
2022/09/06 02:50:26;;;;;;;0.00;0.00;;;18.70;99.90;;;;;;5052783;28;20217;-65
2022/09/06 02:53:06;;;;;;;0.00;0.00;;;18.70;99.90;;;;;;5052491;28;20783;-65
2022/09/06 02:55:32;;;;;;;0.00;0.00;;;18.70;99.90;;;;;;5053133;28;20177;-65
2022/09/06 02:57:57;;;;;;;0.00;0.00;;;18.70;99.90;;;;;;5052667;28;20184;-65
2022/09/06 03:00:24;;;;;;;0.00;0.00;;;18.70;99.90;;;;;;5051336;28;20185;-65
2022/09/06 03:02:49;;;;;;;0.00;0.00;;;18.70;99.90;;;;;;5051539;28;20295;-65
2022/09/06 03:05:15;;;;;;;0.00;0.00;;;18.70;99.90;;;;;;5052432;28;20201;-65
2022/09/06 03:07:40;;;;;;;0.00;0.00;;;18.70;99.90;;;;;;5051278;28;20220;-65
2022/09/06 03:10:06;;;;;;;0.00;0.00;;;18.70;99.90;;;;;;5052780;28;20220;-66
2022/09/06 03:12:32;;;;;;;0.00;0.00;;;18.70;99.90;;;;;;5052308;28;20273;-65
2022/09/06 03:14:57;;;;;;;0.00;0.00;;;18.70;99.90;;;;;;5051829;28;20208;-66
2022/09/06 03:17:23;;;;;;;0.00;0.00;;;18.70;99.90;;;;;;5050564;28;20186;-65
2022/09/06 03:19:48;;;;;;;0.00;0.00;;;18.70;99.90;;;;;;5051534;28;20238;-65
2022/09/06 03:22:14;;;;;;;0.00;0.00;;;18.70;99.90;;;;;;5052032;28;20185;-66
2022/09/06 03:24:39;;;;;;;0.00;0.00;;;18.60;99.90;;;;;;5051187;28;20181;-65
2022/09/06 03:27:05;;;;;;;0.00;0.00;;;18.60;99.90;;;;;;5051337;28;20181;-65
2022/09/06 03:29:31;;;;;;;0.00;0.00;;;18.60;99.90;;;;;;5052219;28;20185;-66
2022/09/06 03:31:56;;;;;;;0.00;0.00;;;18.60;99.90;;;;;;5051946;28;20185;-66
2022/09/06 03:34:22;;;;;;;0.00;0.00;;;18.60;99.90;;;;;;5052195;28;20200;-66
2022/09/06 03:36:47;;;;;;;0.00;0.00;;;18.50;99.90;;;;;;5051578;28;20200;-66
2022/09/06 03:39:13;;;;;;;0.00;0.00;;;18.50;99.90;;;;;;5051709;28;20298;-65
2022/09/06 03:41:38;;;;;;;0.00;0.00;;;18.40;99.90;;;;;;5050665;28;20243;-66
2022/09/06 03:44:04;;;;;;;0.00;0.00;;;18.40;99.90;;;;;;5052062;28;20185;-66
2022/09/06 03:46:30;;;;;;;0.00;0.00;;;18.40;99.90;;;;;;5052413;28;20704;-65
2022/09/06 03:49:00;;;;;;;0.10;0.10;;;18.40;99.90;;;;;;5051281;28;20213;-65
2022/09/06 03:51:26;;;;;;;0.00;0.00;;;18.40;99.90;;;;;;5052425;28;20261;-65
2022/09/06 03:53:51;;;;;;;0.00;0.00;;;18.30;99.90;;;;;;5047012;28;20256;-65
2022/09/06 03:56:17;;;;;;;0.00;0.00;;;18.30;99.90;;;;;;5050612;28;20653;-65
2022/09/06 03:58:42;;;;;;;0.00;0.00;;;18.30;99.90;;;;;;5051620;28;20187;-65
2022/09/06 04:01:11;;;;;;;0.00;0.00;;;18.30;99.90;;;;;;5052236;28;20179;-65
2022/09/06 04:03:37;;;;;;;0.00;0.00;;;18.20;99.90;;;;;;5051938;28;20229;-64
2022/09/06 04:06:04;;;;;;;0.00;0.00;;;18.20;99.90;;;;;;5051656;28;20240;-65
2022/09/06 04:08:30;;;;;;;0.00;0.00;;;18.20;99.90;;;;;;5051329;28;20264;-65
2022/09/06 04:10:58;;;;;;;0.10;0.10;;;18.10;99.90;;;;;;5049761;28;20205;-71
2022/09/06 04:13:27;;;;;;;0.00;0.00;;;18.10;99.90;;;;;;5051715;28;20173;-62
2022/09/06 04:15:52;;;;;;;0.00;0.00;;;18.10;99.90;;;;;;5051896;28;20190;-66
2022/09/06 04:18:19;;;;;;;0.00;0.00;;;18.10;99.90;;;;;;5051898;28;20565;-67
2022/09/06 04:20:48;;;;;;;0.00;0.00;;;18.10;99.90;;;;;;5050174;28;20184;-66
2022/09/06 04:23:14;;;;;;;0.00;0.00;;;18.00;99.90;;;;;;5051539;28;20239;-67
2022/09/06 04:25:39;;;;;;;0.00;0.00;;;18.00;99.90;;;;;;5051559;28;20213;-62
2022/09/06 04:28:05;;;;;;;0.00;0.00;;;18.00;99.90;;;;;;5051339;28;20280;-65
2022/09/06 04:30:31;;;;;;;0.10;0.10;;;17.90;99.90;;;;;;5050377;28;20185;-63
2022/09/06 04:32:56;;;;;;;0.00;0.00;;;17.90;99.90;;;;;;5050837;28;20636;-63
2022/09/06 04:35:22;;;;;;;0.00;0.00;;;17.90;99.90;;;;;;5050900;28;20184;-64
2022/09/06 04:37:47;;;;;;;0.00;0.00;;;17.80;99.90;;;;;;5050869;28;20178;-64
2022/09/06 04:40:13;;;;;;;0.00;0.00;;;17.80;99.90;;;;;;5050904;28;20177;-65
2022/09/06 04:42:38;;;;;;;0.00;0.00;;;17.80;99.90;;;;;;5050727;28;20174;-65
2022/09/06 04:45:04;;;;;;;0.00;0.00;;;17.80;99.90;;;;;;5051284;28;20197;-65
2022/09/06 04:47:30;;;;;;;0.00;0.00;;;17.70;99.90;;;;;;5051538;28;20185;-65
2022/09/06 04:49:55;;;;;;;0.00;0.00;;;17.70;99.90;;;;;;5051785;28;20173;-65
2022/09/06 04:52:21;;;;;;;0.00;0.00;;;17.70;99.90;;;;;;5051620;28;20180;-65
2022/09/06 04:54:46;;;;;;;0.00;0.00;;;17.70;99.90;;;;;;5051556;28;20220;-65
2022/09/06 04:57:12;;;;;;;0.00;0.00;;;17.60;99.90;;;;;;5051418;28;20185;-64
2022/09/06 04:59:37;;;;;;;0.00;0.00;;;17.60;99.90;;;;;;5050196;28;20174;-65
2022/09/06 05:02:03;;;;;;;0.00;0.00;;;17.60;99.90;;;;;;5049869;28;20236;-65
2022/09/06 05:04:28;;;;;;;0.00;0.00;;;17.50;99.90;;;;;;5051113;28;20715;-65
2022/09/06 05:07:07;;;;;;;0.00;0.00;;;17.50;99.90;;;;;;5051199;28;20227;-65
2022/09/06 05:09:33;;;;;;;0.00;0.00;;;17.60;99.90;;;;;;5051153;28;20545;-65
2022/09/06 05:12:00;;;;;;;0.00;0.00;;;17.60;99.90;;;;;;5051537;28;20185;-65
2022/09/06 05:14:26;;;;;;;0.00;0.00;;;17.60;99.90;;;;;;5051056;28;20216;-65
2022/09/06 05:16:53;;;;;;;0.00;0.00;;;17.60;99.90;;;;;;5051268;28;20668;-65
2022/09/06 05:19:19;;;;;;;0.00;0.00;;;17.60;99.90;;;;;;5051191;28;20220;-65
2022/09/06 05:21:45;;;;;;;0.00;0.00;;;17.60;99.90;;;;;;5051221;28;20205;-65
2022/09/06 05:24:10;;;;;;;0.00;0.00;;;17.60;99.90;;;;;;5051214;28;20181;-65
2022/09/06 05:26:36;;;;;;;0.00;0.00;;;17.60;99.90;;;;;;5051010;28;20262;-65
2022/09/06 05:29:01;;;;;;;0.00;0.00;;;17.70;99.90;;;;;;5051054;28;20169;-65
2022/09/06 05:31:29;;;;;;;0.10;0.10;;;17.80;99.90;;;;;;5051744;28;20513;-65
2022/09/06 05:33:56;;;;;;;0.00;0.00;;;17.80;99.90;;;;;;5054613;28;20557;-65
2022/09/06 05:36:23;;;;;;;0.08;0.08;;;18.00;99.90;;;;;;5054898;28;20177;-65
2022/09/06 05:38:52;;;;;;;0.00;0.00;;;18.10;99.90;;;;;;5054971;28;20726;-65
2022/09/06 05:41:19;;;;;;;0.00;0.00;;;18.20;99.90;;;;;;5055007;28;20178;-65
2022/09/06 05:43:45;;;;;;;0.00;0.00;;;18.30;99.90;;;;;;5054789;28;20209;-65
2022/09/06 05:46:11;;;;;;;0.00;0.00;;;18.40;99.90;;;;;;5054923;28;20217;-65
2022/09/06 05:48:36;;;;;;;0.00;0.00;;;18.60;99.90;;;;;;5054693;28;20173;-65
2022/09/06 05:51:11;;;;;;;0.00;0.00;;;18.70;99.90;;;;;;5054797;28;20184;-65
2022/09/06 05:53:44;;;;;;;0.00;0.00;;;18.80;99.90;;;;;;5054680;28;20539;-65
2022/09/06 05:56:11;;;;;;;0.00;0.00;;;18.80;99.90;;;;;;5054516;28;20623;-65
2022/09/06 05:58:37;;;;;;;0.00;0.00;;;18.90;99.90;;;;;;5054615;28;20176;-65
2022/09/06 06:01:17;;;;;;;0.00;0.00;;;19.00;99.90;;;;;;5054572;28;20264;-65
2022/09/06 06:03:57;;;;;;;0.00;0.00;;;19.10;99.90;;;;;;5054390;28;20284;-65
2022/09/06 06:06:24;;;;;;;0.10;0.10;;;19.20;99.90;;;;;;5054389;28;20221;-65
2022/09/06 06:08:50;;;;;;;0.00;0.00;;;19.30;99.90;;;;;;5054364;28;20205;-65
2022/09/06 06:11:16;;;;;;;0.00;0.00;;;19.40;99.90;;;;;;5054557;28;20594;-65
2022/09/06 06:13:42;;;;;;;0.00;0.00;;;19.40;99.90;;;;;;5054277;28;20201;-65
2022/09/06 06:16:09;;;;;;;0.00;0.00;;;19.50;99.90;;;;;;5054485;28;20632;-65
2022/09/06 06:18:35;;;;;;;0.00;0.00;;;19.50;99.90;;;;;;5054321;28;20177;-65
2022/09/06 06:21:13;;;;;;;0.00;0.00;;;19.60;99.90;;;;;;5054223;28;20231;-65
2022/09/06 06:23:39;;;;;;;0.00;0.00;;;19.60;99.90;;;;;;5054053;28;20181;-65
2022/09/06 06:26:06;;;;;;;0.00;0.00;;;19.70;99.90;;;;;;5054128;28;20209;-67
2022/09/06 06:28:32;;;;;;;0.00;0.00;;;19.70;99.90;;;;;;5054151;28;20220;-65
2022/09/06 06:30:58;;;;;;;0.00;0.00;;;19.80;99.90;;;;;;5054015;28;20181;-65
2022/09/06 06:33:23;;;;;;;0.00;0.00;;;19.90;99.90;;;;;;5053997;28;20173;-65
2022/09/06 06:36:12;;;;;;;0.20;0.20;;;20.00;99.90;;;;;;5053942;28;20239;-65
2022/09/06 06:38:39;;;;;;;0.00;0.00;;;20.00;99.90;;;;;;5053913;28;20169;-65
2022/09/06 06:41:06;;;;;;;0.00;0.00;;;20.10;99.90;;;;;;5053951;28;20540;-65
2022/09/06 06:43:36;;;;;;;0.00;0.00;;;20.20;99.90;;;;;;5052545;28;20181;-65
2022/09/06 06:46:10;;;;;;;0.00;0.00;;;20.30;99.90;;;;;;5053653;28;20217;-65
2022/09/06 06:48:39;;;;;;;0.00;0.00;;;20.40;99.90;;;;;;5053718;28;20632;-65
2022/09/06 06:51:09;;;;;;;0.00;0.00;;;20.50;99.90;;;;;;5053816;28;20181;-65
2022/09/06 06:53:34;;;;;;;0.00;0.00;;;20.70;99.90;;;;;;5053643;28;20181;-65
2022/09/06 06:56:01;;;;;;;0.00;0.00;;;20.80;99.90;;;;;;5053550;28;20177;-65
2022/09/06 06:58:26;;;;;;;0.00;0.00;;;20.90;99.90;;;;;;5053629;28;20197;-65
2022/09/06 07:00:52;;;;;;;0.00;0.00;;;21.00;99.90;;;;;;5053354;28;20279;-65
2022/09/06 07:03:18;;;;;;;0.00;0.00;;;21.10;99.90;;;;;;5053317;28;20366;-65
2022/09/06 07:05:45;;;;;;;0.00;0.00;;;21.20;99.90;;;;;;5053162;28;20197;-65
2022/09/06 07:08:11;;;;;;;0.00;0.00;;;21.20;99.90;;;;;;5053363;28;20228;-65
2022/09/06 07:10:37;;;;;;;0.00;0.00;;;21.30;99.90;;;;;;5053279;28;20642;-65
2022/09/06 07:13:03;;;;;;;0.00;0.00;;;21.50;99.90;;;;;;5053264;28;20178;-65
2022/09/06 07:15:29;;;;;;;0.00;0.00;;;22.30;99.90;;;;;;5053354;28;20181;-65
2022/09/06 07:17:55;;;;;;;0.00;0.00;;;23.50;99.90;;;;;;5053242;28;20173;-65
2022/09/06 07:20:21;;;;;;;0.00;0.00;;;24.80;99.90;;;;;;5053124;28;20186;-65
2022/09/06 07:22:56;;;;;;;0.00;0.00;;;25.90;99.90;;;;;;5053086;28;21342;-65
2022/09/06 07:25:21;;;;;;;0.00;0.00;;;26.80;99.90;;;;;;5053098;28;20216;-66
2022/09/06 07:27:47;;;;;;;0.00;0.00;;;27.70;97.80;;;;;;5052958;28;20177;-66
2022/09/06 07:30:13;;;;;;;0.00;0.00;;;27.90;96.80;;;;;;5053019;28;20181;-66
2022/09/06 07:32:38;;;;;;;0.00;0.00;;;27.70;94.90;;;;;;5052848;28;20640;-66
2022/09/06 07:35:04;;;;;;;0.00;0.00;;;27.80;95.70;;;;;;5053000;28;20173;-66
2022/09/06 07:37:30;;;;;;;0.00;0.00;;;28.50;95.10;;;;;;5052767;28;20177;-66
2022/09/06 07:39:55;;;;;;;0.00;0.00;;;29.40;93.90;;;;;;5052819;28;20173;-66
2022/09/06 07:42:21;;;;;;;0.00;0.00;;;30.00;93.00;;;;;;5052563;28;20534;-66
2022/09/06 07:44:46;;;;;;;0.00;0.00;;;30.50;90.40;;;;;;5052655;28;20219;-66
2022/09/06 07:47:14;;;;;;;0.00;0.00;;;30.50;85.80;;;;;;5052669;28;20262;-65
2022/09/06 07:49:40;;;;;;;0.00;0.00;;;30.50;86.70;;;;;;5052416;28;20177;-65
2022/09/06 07:52:05;;;;;;;0.00;0.00;;;30.90;86.70;;;;;;5052477;28;20178;-66
2022/09/06 07:54:31;;;;;;;0.00;0.00;;;31.20;84.80;;;;;;5052060;28;20231;-66
2022/09/06 07:56:56;;;;;;;0.00;0.00;;;31.20;83.20;;;;;;5052525;28;20174;-65
2022/09/06 07:59:22;;;;;;;0.00;0.00;;;31.40;81.70;;;;;;5052331;28;20177;-65
2022/09/06 08:01:48;;;;;;;0.00;0.00;;;31.80;82.70;;;;;;5052057;28;20236;-66
2022/09/06 08:04:14;;;;;;;0.00;0.00;;;31.80;79.00;;;;;;5052325;28;20205;-66
2022/09/06 08:06:46;;;;;;;0.00;0.00;;;32.10;80.40;;;;;;5052006;28;20457;-66
2022/09/06 08:09:12;;;;;;;0.00;0.00;;;32.50;77.00;;;;;;5032420;28;20538;-66
2022/09/06 08:11:38;;;;;;;0.00;0.00;;;32.70;77.20;;;;;;5032201;28;20231;-66
2022/09/06 08:14:06;;;;;;;0.00;0.00;;;32.90;75.40;;;;;;5032259;28;20181;-66
2022/09/06 08:16:33;;;;;;;0.00;0.00;;;33.10;73.80;;;;;;5032163;28;20184;-66
2022/09/06 08:19:01;;;;;;;0.00;0.00;;;33.20;69.60;;;;;;5032090;28;20708;-66
2022/09/06 08:21:29;;;;;;;0.00;0.00;;;33.50;69.20;;;;;;5032505;28;20189;-66
2022/09/06 08:23:57;;;;;;;0.00;0.00;;;33.80;68.40;;;;;;5031971;28;20656;-66
2022/09/06 08:26:23;;;;;;;0.00;0.00;;;34.00;70.80;;;;;;5031931;28;20228;-66
2022/09/06 08:28:58;;;;;;;0.00;0.00;;;34.00;68.80;;;;;;5032018;28;20228;-66
2022/09/06 08:31:24;;;;;;;0.00;0.00;;;34.20;70.00;;;;;;5032074;28;20203;-66
2022/09/06 08:33:51;;;;;;;0.00;0.00;;;34.30;67.50;;;;;;5032020;28;20174;-66
2022/09/06 08:36:16;;;;;;;0.00;0.00;;;34.40;65.90;;;;;;5032018;28;20176;-67
2022/09/06 08:38:42;;;;;;;0.05;0.05;;;34.50;65.90;;;;;;5031799;28;20552;-67
2022/09/06 08:41:20;;;;;;;0.00;0.00;;;34.70;65.30;;;;;;5031957;28;20260;-66
2022/09/06 08:44:02;;;;;;;0.00;0.00;;;34.80;65.50;;;;;;5031877;28;20546;-67
2022/09/06 08:46:46;;;;;;;0.00;0.00;;;34.90;64.30;;;;;;5031823;28;20208;-67
2022/09/06 08:49:12;;;;;;;0.00;0.00;;;34.60;63.50;;;;;;5031853;28;20177;-67
2022/09/06 08:51:50;;;;;;;0.10;0.10;;;34.40;62.90;;;;;;5031814;28;20185;-66
2022/09/06 08:54:37;;;;;;;0.00;0.00;;;34.40;64.00;;;;;;5031824;28;20223;-67
2022/09/06 08:57:24;;;;;;;0.00;0.00;;;34.70;63.90;;;;;;5031663;28;20180;-67
2022/09/06 08:59:55;;;;;;;0.00;0.00;;;34.20;61.00;;;;;;5041357;28;20179;-66
2022/09/06 09:02:21;;;;;;;0.00;0.00;;;34.10;63.10;;;;;;5051485;28;20240;-66
2022/09/06 09:04:54;;;;;;;0.00;0.00;;;34.40;62.40;;;;;;5051454;28;20693;-67
2022/09/06 09:07:32;;;;;;;0.00;0.00;;;34.60;63.70;;;;;;5054441;28;20192;-67
2022/09/06 09:10:01;;;;;;;0.00;0.00;;;34.40;61.60;;;;;;5055778;28;20176;-67
2022/09/06 09:12:31;;;;;;;0.00;0.00;;;33.90;60.70;;;;;;5055582;28;20598;-66
2022/09/06 09:15:05;;;;;;;0.00;0.00;;;33.30;63.20;;;;;;5055566;28;20732;-66
2022/09/06 09:17:31;;;;;;;0.00;0.00;;;33.00;64.90;;;;;;5055522;28;20172;-66
2022/09/06 09:19:57;;;;;;;0.00;0.00;;;32.90;67.80;;;;;;5055397;28;20546;-66
2022/09/06 09:22:23;;;;;;;0.00;0.00;;;33.10;67.70;;;;;;5055402;28;20185;-66
2022/09/06 09:24:51;;;;;;;0.00;0.00;;;33.40;67.80;;;;;;5055306;28;20724;-66
2022/09/06 09:27:25;;;;;;;0.00;0.00;;;33.30;67.00;;;;;;5055354;28;20242;-66
2022/09/06 09:29:57;;;;;;;0.00;0.00;;;33.40;67.80;;;;;;5055174;28;20180;-66
2022/09/06 09:32:40;;;;;;;0.00;0.00;;;33.60;66.90;;;;;;5055040;28;20553;-67
2022/09/06 09:35:22;;;;;;;0.00;0.00;;;33.80;66.90;;;;;;5055288;28;20671;-66
2022/09/06 09:37:59;;;;;;;0.00;0.00;;;33.80;66.20;;;;;;5055113;28;20530;-66
2022/09/06 09:40:25;;;;;;;0.00;0.00;;;33.60;64.20;;;;;;5055122;28;20165;-67
2022/09/06 09:42:53;;;;;;;0.00;0.00;;;33.50;64.90;;;;;;5055051;28;20177;-66
2022/09/06 09:45:19;;;;;;;0.00;0.00;;;33.70;65.70;;;;;;5054868;28;20216;-67
2022/09/06 09:47:44;;;;;;;0.00;0.00;;;33.50;63.90;;;;;;5054813;28;20185;-66
2022/09/06 09:50:22;;;;;;;0.00;0.00;;;33.10;64.70;;;;;;5055029;28;20234;-66
2022/09/06 09:52:47;;;;;;;0.00;0.00;;;32.70;65.10;;;;;;5054830;28;20219;-66
2022/09/06 09:55:13;;;;;;;0.00;0.00;;;32.40;66.10;;;;;;5054910;28;20212;-66
2022/09/06 09:57:45;;;;;;;0.00;0.00;;;32.00;67.90;;;;;;5054610;28;20190;-66
2022/09/06 10:00:12;;;;;;;0.00;0.00;;;31.90;69.90;;;;;;5054702;28;20545;-66
2022/09/06 10:02:40;;;;;;;0.00;0.00;;;31.90;70.70;;;;;;5054513;28;20232;-66
2022/09/06 10:05:11;;;;;;;0.00;0.00;;;32.20;70.10;;;;;;5054593;28;20173;-66
2022/09/06 10:07:52;;;;;;;0.00;0.00;;;32.30;68.90;;;;;;5054378;28;20181;-67
2022/09/06 10:10:27;;;;;;;0.00;0.00;;;32.10;68.30;;;;;;5054527;28;20169;-66
2022/09/06 10:13:08;;;;;;;0.00;0.00;;;32.10;69.10;;;;;;5054483;28;20169;-66
2022/09/06 10:15:39;;;;;;;0.00;0.00;;;31.90;70.00;;;;;;5054435;28;20181;-66
2022/09/06 10:18:05;;;;;;;0.00;0.00;;;31.90;69.40;;;;;;5054148;28;20244;-67
2022/09/06 10:20:44;;;;;;;0.00;0.00;;;32.00;70.50;;;;;;5054334;28;20634;-66
2022/09/06 10:23:19;;;;;;;0.10;0.10;;;32.10;70.20;;;;;;5054349;28;20173;-66
2022/09/06 10:25:46;;;;;;;0.10;0.10;;;32.30;69.10;;;;;;5054107;28;20209;-66
2022/09/06 10:28:23;;;;;;;0.00;0.00;;;32.30;70.00;;;;;;5052978;28;20303;-67
2022/09/06 10:31:04;;;;;;;0.00;0.00;;;32.30;68.90;;;;;;5054099;28;20172;-66
2022/09/06 10:33:55;;;;;;;0.00;0.00;;;32.30;68.90;;;;;;5054037;28;20201;-66
2022/09/06 10:36:38;;;;;;;0.00;0.00;;;32.20;68.50;;;;;;5052850;28;20311;-66
2022/09/06 10:39:40;;;;;;;0.00;0.00;;;32.00;69.80;;;;;;5054063;28;20188;-66
2022/09/06 10:42:42;;;;;;;0.05;0.05;;;31.70;68.90;;;;;;5053976;28;20223;-66
2022/09/06 10:45:22;;;;;;;0.00;0.00;;;31.60;70.20;;;;;;5053817;28;20161;-66
2022/09/06 10:47:56;;;;;;;0.00;0.00;;;31.80;70.50;;;;;;5053802;28;20181;-66
2022/09/06 10:50:31;;;;;;;0.00;0.00;;;31.90;70.00;;;;;;5053579;28;20188;-66
2022/09/06 10:53:02;;;;;;;0.00;0.00;;;31.90;68.80;;;;;;5053751;28;20181;-66
2022/09/06 10:55:31;;;;;;;0.00;0.00;;;31.90;68.70;;;;;;5053624;28;20178;-66
2022/09/06 10:58:03;;;;;;;0.00;0.00;;;31.70;66.80;;;;;;5053561;28;20192;-66
2022/09/06 11:00:41;;;;;;;0.00;0.00;;;31.30;66.90;;;;;;5053516;28;20189;-66
2022/09/06 11:03:16;;;;;;;0.00;0.00;;;31.00;69.00;;;;;;5053404;28;20296;-66
2022/09/06 11:05:48;;;;;;;0.32;0.32;;;30.80;68.60;;;;;;5053088;28;20771;-67
2022/09/06 11:08:32;;;;;;;0.00;0.00;;;31.00;68.70;;;;;;5053420;28;20212;-66
2022/09/06 11:11:06;;;;;;;0.00;0.00;;;31.10;69.60;;;;;;5053327;28;20177;-66
2022/09/06 11:13:31;;;;;;;0.00;0.00;;;31.10;69.30;;;;;;5053305;28;20227;-66
2022/09/06 11:16:03;;;;;;;0.20;0.20;;;31.20;69.30;;;;;;5053395;28;20189;-66
2022/09/06 11:18:48;;;;;;;0.00;0.00;;;31.10;69.70;;;;;;5053196;28;20227;-66
2022/09/06 11:21:38;;;;;;;0.00;0.00;;;31.20;70.00;;;;;;5051966;28;20239;-66
2022/09/06 11:24:11;;;;;;;0.00;0.00;;;31.40;69.20;;;;;;5053178;28;20640;-66
2022/09/06 11:26:43;;;;;;;0.00;0.00;;;31.70;68.90;;;;;;5052965;28;20629;-67
2022/09/06 11:29:17;;;;;;;0.00;0.00;;;31.70;66.80;;;;;;5052387;28;20256;-66
2022/09/06 11:31:57;;;;;;;0.00;0.00;;;31.70;67.70;;;;;;5052747;28;20541;-66
2022/09/06 11:34:29;;;;;;;0.00;0.00;;;31.90;68.80;;;;;;5052885;28;20177;-66
2022/09/06 11:36:58;;;;;;;0.00;0.00;;;32.20;67.70;;;;;;5052873;28;20185;-67
2022/09/06 11:39:31;;;;;;;0.00;0.00;;;32.20;65.60;;;;;;5052950;28;20177;-66
2022/09/06 11:41:58;;;;;;;0.00;0.00;;;32.20;66.60;;;;;;5052685;28;20697;-66
2022/09/06 11:44:52;;;;;;;0.00;0.00;;;31.90;66.00;;;;;;5052659;28;20185;-66
2022/09/06 11:47:46;;;;;;;0.00;0.00;;;31.70;66.40;;;;;;5052598;28;20213;-66
2022/09/06 11:50:25;;;;;;;0.63;0.63;;;31.70;67.60;;;;;;5052691;28;20521;-66
2022/09/06 11:53:14;;;;;;;0.00;0.00;;;31.70;67.50;;;;;;5052585;28;20169;-66
2022/09/06 11:55:47;;;;;;;0.00;0.00;;;31.80;66.90;;;;;;5052420;28;20170;-66
2022/09/06 11:58:15;;;;;;;0.10;0.10;;;31.90;65.50;;;;;;5052557;28;20181;-66
2022/09/06 12:00:41;;;;;;;0.00;0.00;;;32.00;65.80;;;;;;5052100;28;20203;-66
2022/09/06 12:03:41;;;;;;;0.00;0.00;;;32.20;65.80;;;;;;5052283;28;20783;-66
2022/09/06 12:06:18;;;;;;;0.00;0.00;;;32.40;65.70;;;;;;5052211;28;20209;-66
2022/09/06 12:08:45;;;;;;;0.00;0.00;;;32.50;65.10;;;;;;5052120;28;20263;-67
2022/09/06 12:11:47;;;;;;;0.00;0.00;;;32.40;63.90;;;;;;5052233;28;20523;-67
2022/09/06 12:14:18;;;;;;;0.30;0.30;;;32.40;62.90;;;;;;5049967;28;20208;-67
2022/09/06 12:16:59;;;;;;;0.00;0.00;;;32.60;63.70;;;;;;5051691;28;20499;-67
2022/09/06 12:19:38;;;;;;;0.00;0.00;;;32.60;63.60;;;;;;5052128;28;20319;-66
2022/09/06 12:22:26;;;;;;;0.00;0.00;;;32.80;63.70;;;;;;5052070;28;20177;-66
2022/09/06 12:24:58;;;;;;;0.00;0.00;;;32.70;62.70;;;;;;5051940;28;20788;-67
2022/09/06 12:27:48;;;;;;;0.00;0.00;;;32.50;62.50;;;;;;5052079;28;20239;-66
2022/09/06 12:30:37;;;;;;;0.00;0.00;;;32.50;62.50;;;;;;5052055;28;20694;-66
2022/09/06 12:33:14;;;;;;;0.00;0.00;;;32.40;62.30;;;;;;5051966;28;20251;-67
2022/09/06 12:35:39;;;;;;;0.00;0.00;;;32.30;62.10;;;;;;5051701;28;20242;-67
2022/09/06 12:38:10;;;;;;;0.00;0.00;;;32.10;61.30;;;;;;5051885;28;20173;-67
2022/09/06 12:40:39;;;;;;;0.00;0.00;;;32.10;61.40;;;;;;5051844;28;20230;-67
2022/09/06 12:43:09;;;;;;;0.00;0.00;;;32.10;62.60;;;;;;5051857;28;20169;-67
2022/09/06 12:45:35;;;;;;;0.00;0.00;;;32.20;62.90;;;;;;5051698;28;20254;-67
2022/09/06 12:48:23;;;;;;;0.00;0.00;;;32.00;60.50;;;;;;5051726;28;20272;-66
2022/09/06 12:51:03;;;;;;;0.00;0.00;;;31.90;62.20;;;;;;5051722;28;20166;-66
2022/09/06 12:53:30;;;;;;;0.00;0.00;;;31.60;60.50;;;;;;5051772;28;20230;-67
2022/09/06 12:56:13;;;;;;;0.00;0.00;;;31.30;61.50;;;;;;5051893;28;20238;-66
2022/09/06 12:58:39;;;;;;;0.00;0.00;;;31.40;62.10;;;;;;5051562;28;20190;-66
2022/09/06 13:01:13;;;;;;;0.15;0.15;;;31.30;62.50;;;;;;5031729;28;20265;-66
2022/09/06 13:03:52;;;;;;;0.00;0.00;;;31.10;62.10;;;;;;5031666;28;20226;-67
2022/09/06 13:06:21;;;;;;;0.00;0.00;;;31.10;63.20;;;;;;5031701;28;20267;-66
2022/09/06 13:08:52;;;;;;;0.00;0.00;;;31.10;63.30;;;;;;5048656;28;20174;-66